Weather observations for the past three days for
St. Joseph, Rosecrans Memorial Airport
Metric (Imperial)
Date Time (cdt) Wind (kph) Vis. (km) Weather Sky Cond. Temperature (ºC) Relative Humidity Wind Chill (°C) Heat Index (°C) Pressure Precipitation (cm)
Air Dwpt 6 hour altimeter (cm) sea level (mb) 1 hr 3 hr 6 hr
Max. Min.
05 19:53 N 19 G 44 16.09 Light Rain BKN060 OVC075 12.2 1.1 47% 75.97 1012.7
05 18:53 N 11 16.09 Overcast OVC095 13.9 -1.7 15 12.8 34% 75.9 1011.8
05 17:53 N 15 16.09 Overcast OVC090 14.4 -1.7 33% 75.9 1011.7
05 16:53 N 28 16.09 Overcast OVC090 15 -3.9 27% 75.9 1011.6
05 15:53 N 19 16.09 Overcast OVC095 15 -1.1 33% 75.92 1011.9
05 14:53 N 15 16.09 Overcast OVC090 15 0.6 38% 75.95 1012.3
05 13:53 N 11 16.09 Overcast OVC090 13.3 2.8 49% 75.95 1012.5
05 12:53 NW 11 16.09 Overcast OVC080 13.3 2.8 13.3 10.6 49% 75.97 1012.7
05 11:53 Vrbl 6 16.09 Overcast BKN080 OVC090 11.7 4.4 61% 76 1013.0
05 10:53 NW 7 16.09 Overcast OVC075 11.1 3.9 61% 76 1013.0
05 09:53 S 7 16.09 Overcast OVC085 11.1 3.9 61% 75.97 1012.4
05 08:53 N 11 16.09 Overcast BKN090 OVC110 10.6 5.6 71% 75.95 1012.1
05 07:53 NW 11 16.09 Overcast BKN070 OVC090 10.6 4.4 66% 75.97 1012.4
05 06:53 NE 15 16.09 Overcast OVC085 11.7 0.6 14.4 11.7 47% 75.77 1009.5
05 05:53 NE 19 16.09 Overcast OVC085 12.2 0.6 45% 75.74 1009.2
05 04:53 NE 22 16.09 Overcast OVC090 12.2 0 43% 75.77 1009.5
05 03:53 NE 17 16.09 Overcast OVC090 12.8 0 42% 75.77 1009.3
05 02:53 NE 17 16.09 Overcast OVC085 12.8 0.6 44% 75.72 1008.7
05 01:53 N 20 16.09 Overcast OVC080 13.9 0 39% 75.69 1008.3
05 00:53 NE 26 16.09 Overcast OVC075 14.4 0 28.9 14.4 38% 75.59 1007.1
04 23:53 N 44 G 61 16.09 Fair and Windy CLR 15.6 0 35% 75.51 1006.2
04 22:53 N 41 G 54 16.09 Fair and Breezy CLR 18.9 1.1 30% 75.44 1005.2
04 21:53 N 28 16.09 Mostly Cloudy BKN110 21.1 2.2 29% 75.36 1003.9
04 20:53 NE 26 16.09 A Few Clouds FEW120 22.8 4.4 30% 75.23 1002.4
04 19:53 SW 9 16.09 Fair CLR 25 6.7 31% 25 75.08 1000.4
04 18:53 NW 17 16.09 Fair CLR 29.4 -0.6 31.7 27.2 14% 28 75.06 1000.1
04 17:53 NW 17 16.09 Fair CLR 29.4 0.6 15% 28 75.06 1000.0
04 16:53 W 19 16.09 Fair CLR 31.7 2.8 16% 30 75.03 999.7
04 15:53 S 7 16.09 Mostly Cloudy BKN100 29.4 7.8 26% 28 75.06 1000.0
04 14:53 S 11 16.09 Fair CLR 29.4 8.9 28% 28 75.11 1000.5
04 13:53 SW 15 16.09 Fair CLR 28.9 8.9 29% 28 75.11 1000.6
04 12:53 SW 15 16.09 Fair CLR 27.2 8.3 28.3 12.2 30% 27 75.16 1001.2
04 11:53 S 13 16.09 Fair CLR 25.6 8.3 33% 26 75.18 1001.7
04 10:53 SW 19 16.09 Fair CLR 25 8.9 36% 26 75.21 1002.0
04 09:53 SW 17 16.09 Fair CLR 21.7 8.9 44% 75.21 1002.1
04 08:53 SW 19 16.09 Fair CLR 20.6 8.3 45% 75.23 1002.3
04 07:53 S 11 16.09 Fair CLR 17.2 8.3 56% 75.23 1002.6
04 06:53 Calm 16.09 Fair CLR 12.2 7.8 17.2 10 75% 75.23 1002.4
04 05:53 S 6 16.09 Fair CLR 10 7.2 83% 75.23 1002.5
04 04:53 S 9 16.09 Fair CLR 12.8 7.8 72% 75.29 1003.0
04 03:53 SE 13 16.09 Fair CLR 15 7.2 60% 75.34 1003.9
04 02:53 E 6 16.09 Fair CLR 16.7 6.7 52% 75.41 1004.6
04 01:53 N 9 16.09 Partly Cloudy SCT100 15.6 7.2 58% 75.46 1005.6
04 00:53 NW 6 16.09 Fair CLR 15.6 6.7 25 14.4 56% 75.51 1006.1
03 23:53 E 11 16.09 Fair CLR 16.1 6.7 54% 75.54 1006.5
03 22:53 W 7 16.09 Fair CLR 15.6 9.4 67% 75.64 1008.1
03 21:53 Calm 16.09 Fair CLR 16.7 6.7 52% 75.59 1007.5
03 20:53 N 6 16.09 Fair CLR 17.8 5.6 45% 75.59 1007.4
03 19:53 NE 9 16.09 Fair CLR 20.6 6.1 39% 75.59 1007.5
03 18:53 N 13 16.09 Fair CLR 25 5.6 26.7 23.9 29% 25 75.64 1007.8
03 17:53 N 7 16.09 Fair CLR 26.7 3.3 22% 26 75.64 1008.1
03 16:53 W 11 16.09 Fair CLR 26.1 2.8 22% 26 75.69 1008.6
03 15:53 Vrbl 9 16.09 Fair CLR 26.1 3.3 23% 26 75.74 1009.2
03 14:53 SW 11 16.09 Fair CLR 25.6 4.4 26% 25 75.79 1009.9
03 13:53 W 20 16.09 Fair CLR 24.4 4.4 27% 25 75.82 1010.5
03 12:53 W 20 G 30 16.09 Fair CLR 23.9 5 24.4 11.1 29% 25 75.87 1011.3
03 11:53 W 31 16.09 Fair CLR 23.3 5.6 32% 75.92 1011.7
03 10:53 SW 28 G 43 16.09 Fair CLR 20.6 5.6 38% 75.92 1012.1
03 09:53 SW 28 G 37 16.09 Fair CLR 17.8 4.4 41% 76 1013.0
03 08:53 SW 15 16.09 Fair CLR 13.9 2.8 47% 76.02 1013.4
03 07:53 S 22 16.09 Fair CLR 12.2 1.1 47% 76 1013.1
03 06:53 S 26 16.09 Fair CLR 11.1 0 11.1 9.4 47% 76 1012.8
03 05:53 S 24 16.09 Fair CLR 10.6 0 48% 76 1013.1
03 04:53 SW 26 16.09 Fair CLR 11.1 0 47% 76.05 1013.8
03 03:53 S 22 16.09 Fair CLR 11.1 0 47% 76.1 1014.3
03 02:53 S 15 16.09 Fair CLR 10 0.6 52% 8 76.12 1014.9
03 01:53 S 13 16.09 Fair CLR 10 0.6 52% 8 76.15 1015.2
03 00:53 S 13 16.09 Fair CLR 10.6 0.6 18.3 8.9 50% 76.2 1015.8
02 23:53 S 11 16.09 Fair CLR 8.9 1.1 58% 7 76.25 1016.5
02 21:53 S 9 16.09 Fair CLR 10.6 0.6 50% 76.33 1017.6
02 20:53 S 11 0.00 NULL NULL 13.3 0 40% 76.33 1017.4
Date Time (cdt) Wind (kph) Vis. (km) Weather Sky Cond. Air Dwpt Max. Min. Relative Humidity Wind Chill (°C) Heat Index (°C) altimeter (cm) sea level (mb) 1 hr 3 hr 6 hr
6 hour
Temperature (ºC) Pressure Precipitation (cm)